sensor_id;sensor_type;location;lat;lon;timestamp;temperature;humidity
15143;DHT22;7672;50.834;6.286;2023-02-16T00:00:43;9.50;99.90
15143;DHT22;7672;50.834;6.286;2023-02-16T00:03:18;9.00;99.90
15143;DHT22;7672;50.834;6.286;2023-02-16T00:05:48;9.80;99.90
15143;DHT22;7672;50.834;6.286;2023-02-16T00:08:16;9.40;99.90
15143;DHT22;7672;50.834;6.286;2023-02-16T00:10:44;9.40;99.90
15143;DHT22;7672;50.834;6.286;2023-02-16T00:13:32;9.00;99.90
15143;DHT22;7672;50.834;6.286;2023-02-16T00:16:16;9.00;99.90
15143;DHT22;7672;50.834;6.286;2023-02-16T00:18:47;9.60;99.90
15143;DHT22;7672;50.834;6.286;2023-02-16T00:21:17;9.50;99.90
15143;DHT22;7672;50.834;6.286;2023-02-16T00:23:50;8.90;99.90
15143;DHT22;7672;50.834;6.286;2023-02-16T00:26:23;9.30;99.90
15143;DHT22;7672;50.834;6.286;2023-02-16T00:28:53;8.90;99.90
15143;DHT22;7672;50.834;6.286;2023-02-16T00:31:25;9.50;99.90
15143;DHT22;7672;50.834;6.286;2023-02-16T00:33:58;9.60;99.90
15143;DHT22;7672;50.834;6.286;2023-02-16T00:36:28;9.40;99.90
15143;DHT22;7672;50.834;6.286;2023-02-16T00:38:55;8.80;99.90
15143;DHT22;7672;50.834;6.286;2023-02-16T00:41:24;9.50;99.90
15143;DHT22;7672;50.834;6.286;2023-02-16T00:44:15;9.20;99.90
15143;DHT22;7672;50.834;6.286;2023-02-16T00:47:29;8.80;99.90
15143;DHT22;7672;50.834;6.286;2023-02-16T00:50:09;8.80;99.90
15143;DHT22;7672;50.834;6.286;2023-02-16T00:52:44;8.80;99.90
15143;DHT22;7672;50.834;6.286;2023-02-16T00:55:21;8.70;99.90
15143;DHT22;7672;50.834;6.286;2023-02-16T01:00:52;8.80;99.90
15143;DHT22;7672;50.834;6.286;2023-02-16T01:03:25;8.70;99.90
15143;DHT22;7672;50.834;6.286;2023-02-16T01:05:56;8.40;99.90
15143;DHT22;7672;50.834;6.286;2023-02-16T01:08:46;9.30;99.90
15143;DHT22;7672;50.834;6.286;2023-02-16T01:11:47;8.70;99.90
15143;DHT22;7672;50.834;6.286;2023-02-16T01:14:16;8.70;99.90
15143;DHT22;7672;50.834;6.286;2023-02-16T01:16:46;8.70;99.90
15143;DHT22;7672;50.834;6.286;2023-02-16T01:19:13;8.70;99.90
15143;DHT22;7672;50.834;6.286;2023-02-16T01:21:41;8.70;99.90
15143;DHT22;7672;50.834;6.286;2023-02-16T01:24:13;8.70;99.90
15143;DHT22;7672;50.834;6.286;2023-02-16T01:26:46;8.70;99.90
15143;DHT22;7672;50.834;6.286;2023-02-16T01:29:19;9.00;99.90
15143;DHT22;7672;50.834;6.286;2023-02-16T01:31:47;8.70;99.90
15143;DHT22;7672;50.834;6.286;2023-02-16T01:34:17;9.40;99.90
15143;DHT22;7672;50.834;6.286;2023-02-16T01:36:47;8.70;99.90
15143;DHT22;7672;50.834;6.286;2023-02-16T01:39:16;9.30;99.90
15143;DHT22;7672;50.834;6.286;2023-02-16T01:44:59;8.70;99.90
15143;DHT22;7672;50.834;6.286;2023-02-16T01:47:39;8.70;99.90
15143;DHT22;7672;50.834;6.286;2023-02-16T01:50:24;8.70;99.90
15143;DHT22;7672;50.834;6.286;2023-02-16T01:53:05;8.60;99.90
15143;DHT22;7672;50.834;6.286;2023-02-16T01:55:50;8.40;99.90
15143;DHT22;7672;50.834;6.286;2023-02-16T02:03:32;9.10;99.90
15143;DHT22;7672;50.834;6.286;2023-02-16T02:06:22;8.60;99.90
15143;DHT22;7672;50.834;6.286;2023-02-16T02:09:07;8.60;99.90
15143;DHT22;7672;50.834;6.286;2023-02-16T02:11:45;9.40;99.90
15143;DHT22;7672;50.834;6.286;2023-02-16T02:14:51;8.60;99.90
15143;DHT22;7672;50.834;6.286;2023-02-16T02:17:20;8.60;99.90
15143;DHT22;7672;50.834;6.286;2023-02-16T02:26:18;9.10;99.90
15143;DHT22;7672;50.834;6.286;2023-02-16T02:38:25;8.50;99.90
15143;DHT22;7672;50.834;6.286;2023-02-16T02:41:17;8.50;99.90
15143;DHT22;7672;50.834;6.286;2023-02-16T02:44:20;8.50;99.90
15143;DHT22;7672;50.834;6.286;2023-02-16T02:46:52;8.40;99.90
15143;DHT22;7672;50.834;6.286;2023-02-16T02:49:19;9.10;99.90
15143;DHT22;7672;50.834;6.286;2023-02-16T02:51:48;9.10;99.90
15143;DHT22;7672;50.834;6.286;2023-02-16T02:54:34;8.50;99.90
15143;DHT22;7672;50.834;6.286;2023-02-16T02:57:35;8.50;99.90
15143;DHT22;7672;50.834;6.286;2023-02-16T03:00:34;8.20;99.90
15143;DHT22;7672;50.834;6.286;2023-02-16T03:03:28;8.50;99.90
15143;DHT22;7672;50.834;6.286;2023-02-16T03:06:25;8.00;99.90
15143;DHT22;7672;50.834;6.286;2023-02-16T03:09:11;8.50;99.90
15143;DHT22;7672;50.834;6.286;2023-02-16T03:11:41;8.60;99.90
15143;DHT22;7672;50.834;6.286;2023-02-16T03:14:55;9.10;99.90
15143;DHT22;7672;50.834;6.286;2023-02-16T03:17:42;9.10;99.90
15143;DHT22;7672;50.834;6.286;2023-02-16T03:20:34;9.20;99.90
15143;DHT22;7672;50.834;6.286;2023-02-16T03:23:21;9.00;99.90
15143;DHT22;7672;50.834;6.286;2023-02-16T03:26:10;8.90;99.90
15143;DHT22;7672;50.834;6.286;2023-02-16T03:28:55;8.60;99.90
15143;DHT22;7672;50.834;6.286;2023-02-16T03:31:44;8.50;99.90
15143;DHT22;7672;50.834;6.286;2023-02-16T03:34:16;8.60;99.90
15143;DHT22;7672;50.834;6.286;2023-02-16T03:36:48;8.50;99.90
15143;DHT22;7672;50.834;6.286;2023-02-16T03:39:21;9.20;99.90
15143;DHT22;7672;50.834;6.286;2023-02-16T03:41:52;8.50;99.90
15143;DHT22;7672;50.834;6.286;2023-02-16T03:44:21;9.20;99.90
15143;DHT22;7672;50.834;6.286;2023-02-16T03:46:50;9.10;99.90
15143;DHT22;7672;50.834;6.286;2023-02-16T03:49:18;9.30;99.90
15143;DHT22;7672;50.834;6.286;2023-02-16T03:51:48;9.00;99.90
15143;DHT22;7672;50.834;6.286;2023-02-16T03:54:15;8.50;99.90
15143;DHT22;7672;50.834;6.286;2023-02-16T03:56:42;9.10;99.90
15143;DHT22;7672;50.834;6.286;2023-02-16T03:59:09;8.50;99.90
15143;DHT22;7672;50.834;6.286;2023-02-16T04:01:39;9.20;99.90
15143;DHT22;7672;50.834;6.286;2023-02-16T04:04:06;8.50;99.90
15143;DHT22;7672;50.834;6.286;2023-02-16T04:06:33;8.50;99.90
15143;DHT22;7672;50.834;6.286;2023-02-16T04:09:00;8.50;99.90
15143;DHT22;7672;50.834;6.286;2023-02-16T04:11:30;8.50;99.90
15143;DHT22;7672;50.834;6.286;2023-02-16T04:14:16;9.40;99.90
15143;DHT22;7672;50.834;6.286;2023-02-16T04:16:46;8.30;99.90
15143;DHT22;7672;50.834;6.286;2023-02-16T04:19:16;8.50;99.90
15143;DHT22;7672;50.834;6.286;2023-02-16T04:21:46;8.50;99.90
15143;DHT22;7672;50.834;6.286;2023-02-16T04:24:15;8.50;99.90
15143;DHT22;7672;50.834;6.286;2023-02-16T04:26:45;9.20;99.90
15143;DHT22;7672;50.834;6.286;2023-02-16T04:29:12;8.40;99.90
15143;DHT22;7672;50.834;6.286;2023-02-16T04:31:39;9.30;99.90
15143;DHT22;7672;50.834;6.286;2023-02-16T04:34:08;8.90;99.90
15143;DHT22;7672;50.834;6.286;2023-02-16T04:36:41;9.20;99.90
15143;DHT22;7672;50.834;6.286;2023-02-16T04:39:08;8.40;99.90
15143;DHT22;7672;50.834;6.286;2023-02-16T04:41:38;9.10;99.90
15143;DHT22;7672;50.834;6.286;2023-02-16T04:44:08;8.40;99.90
15143;DHT22;7672;50.834;6.286;2023-02-16T04:46:38;8.40;99.90
15143;DHT22;7672;50.834;6.286;2023-02-16T04:49:08;8.40;99.90
15143;DHT22;7672;50.834;6.286;2023-02-16T04:51:35;9.10;99.90
15143;DHT22;7672;50.834;6.286;2023-02-16T04:54:03;9.20;99.90
15143;DHT22;7672;50.834;6.286;2023-02-16T04:56:33;8.40;99.90
15143;DHT22;7672;50.834;6.286;2023-02-16T04:59:01;8.00;99.90
15143;DHT22;7672;50.834;6.286;2023-02-16T05:01:29;7.90;99.90
15143;DHT22;7672;50.834;6.286;2023-02-16T05:03:58;8.40;99.90
15143;DHT22;7672;50.834;6.286;2023-02-16T05:06:25;8.40;99.90
15143;DHT22;7672;50.834;6.286;2023-02-16T05:08:52;8.30;99.90
15143;DHT22;7672;50.834;6.286;2023-02-16T05:11:20;8.40;99.90
15143;DHT22;7672;50.834;6.286;2023-02-16T05:14:05;7.60;99.90
15143;DHT22;7672;50.834;6.286;2023-02-16T05:16:52;8.90;99.90
15143;DHT22;7672;50.834;6.286;2023-02-16T05:19:19;9.00;99.90
15143;DHT22;7672;50.834;6.286;2023-02-16T05:21:49;8.40;99.90
15143;DHT22;7672;50.834;6.286;2023-02-16T05:24:16;8.60;99.90
15143;DHT22;7672;50.834;6.286;2023-02-16T05:26:47;8.30;99.90
15143;DHT22;7672;50.834;6.286;2023-02-16T05:29:14;8.30;99.90
15143;DHT22;7672;50.834;6.286;2023-02-16T05:31:41;8.30;99.90
15143;DHT22;7672;50.834;6.286;2023-02-16T05:34:08;8.40;99.90
15143;DHT22;7672;50.834;6.286;2023-02-16T05:36:38;8.40;99.90
15143;DHT22;7672;50.834;6.286;2023-02-16T05:39:08;8.30;99.90
15143;DHT22;7672;50.834;6.286;2023-02-16T05:41:39;8.40;99.90
15143;DHT22;7672;50.834;6.286;2023-02-16T05:44:12;8.40;99.90
15143;DHT22;7672;50.834;6.286;2023-02-16T05:46:40;9.00;99.90
15143;DHT22;7672;50.834;6.286;2023-02-16T05:49:09;8.40;99.90
15143;DHT22;7672;50.834;6.286;2023-02-16T05:51:36;9.10;99.90
15143;DHT22;7672;50.834;6.286;2023-02-16T05:54:08;8.40;99.90
15143;DHT22;7672;50.834;6.286;2023-02-16T05:56:47;8.40;99.90
15143;DHT22;7672;50.834;6.286;2023-02-16T05:59:20;8.40;99.90
15143;DHT22;7672;50.834;6.286;2023-02-16T06:01:49;8.50;99.90
15143;DHT22;7672;50.834;6.286;2023-02-16T06:04:21;8.40;99.90
15143;DHT22;7672;50.834;6.286;2023-02-16T06:06:51;8.90;99.90
15143;DHT22;7672;50.834;6.286;2023-02-16T06:09:18;8.90;99.90
15143;DHT22;7672;50.834;6.286;2023-02-16T06:11:47;8.60;99.90
15143;DHT22;7672;50.834;6.286;2023-02-16T06:14:21;7.80;99.90
15143;DHT22;7672;50.834;6.286;2023-02-16T06:17:02;8.50;99.90
15143;DHT22;7672;50.834;6.286;2023-02-16T06:19:35;8.70;99.90
15143;DHT22;7672;50.834;6.286;2023-02-16T06:22:02;8.50;99.90
15143;DHT22;7672;50.834;6.286;2023-02-16T06:24:29;8.60;99.90
15143;DHT22;7672;50.834;6.286;2023-02-16T06:27:00;9.20;99.90
15143;DHT22;7672;50.834;6.286;2023-02-16T06:29:51;8.60;99.90
15143;DHT22;7672;50.834;6.286;2023-02-16T06:32:20;9.40;99.90
15143;DHT22;7672;50.834;6.286;2023-02-16T06:34:50;9.20;99.90
15143;DHT22;7672;50.834;6.286;2023-02-16T06:37:20;8.70;99.90
15143;DHT22;7672;50.834;6.286;2023-02-16T06:39:53;8.70;99.90
15143;DHT22;7672;50.834;6.286;2023-02-16T06:42:20;9.40;99.90
15143;DHT22;7672;50.834;6.286;2023-02-16T06:44:56;8.60;99.90
15143;DHT22;7672;50.834;6.286;2023-02-16T06:47:38;8.80;99.90
15143;DHT22;7672;50.834;6.286;2023-02-16T06:50:08;9.10;99.90
15143;DHT22;7672;50.834;6.286;2023-02-16T06:52:41;8.90;99.90
15143;DHT22;7672;50.834;6.286;2023-02-16T06:55:14;8.50;99.90
15143;DHT22;7672;50.834;6.286;2023-02-16T06:57:47;8.90;99.90
15143;DHT22;7672;50.834;6.286;2023-02-16T07:00:25;8.40;99.90
15143;DHT22;7672;50.834;6.286;2023-02-16T07:03:11;9.10;99.90
15143;DHT22;7672;50.834;6.286;2023-02-16T07:05:48;9.20;99.90
15143;DHT22;7672;50.834;6.286;2023-02-16T07:08:17;9.90;99.90
15143;DHT22;7672;50.834;6.286;2023-02-16T07:10:49;9.00;99.90
15143;DHT22;7672;50.834;6.286;2023-02-16T07:13:23;9.80;99.90
15143;DHT22;7672;50.834;6.286;2023-02-16T07:15:59;9.80;99.90
15143;DHT22;7672;50.834;6.286;2023-02-16T07:18:26;10.20;99.90
15143;DHT22;7672;50.834;6.286;2023-02-16T07:20:53;10.10;99.90
15143;DHT22;7672;50.834;6.286;2023-02-16T07:23:20;10.20;99.90
15143;DHT22;7672;50.834;6.286;2023-02-16T07:25:47;10.30;99.90
15143;DHT22;7672;50.834;6.286;2023-02-16T07:28:14;10.30;99.90
15143;DHT22;7672;50.834;6.286;2023-02-16T07:30:42;10.40;99.90
15143;DHT22;7672;50.834;6.286;2023-02-16T07:33:10;10.40;99.90
15143;DHT22;7672;50.834;6.286;2023-02-16T07:35:37;10.50;99.90
15143;DHT22;7672;50.834;6.286;2023-02-16T07:38:04;10.40;99.90
15143;DHT22;7672;50.834;6.286;2023-02-16T07:40:31;10.50;99.90
15143;DHT22;7672;50.834;6.286;2023-02-16T07:42:59;10.50;99.90
15143;DHT22;7672;50.834;6.286;2023-02-16T07:45:27;10.50;99.90
15143;DHT22;7672;50.834;6.286;2023-02-16T07:47:55;10.50;99.90
15143;DHT22;7672;50.834;6.286;2023-02-16T07:50:22;10.50;99.90
15143;DHT22;7672;50.834;6.286;2023-02-16T07:52:49;10.60;99.90
15143;DHT22;7672;50.834;6.286;2023-02-16T07:55:16;10.60;99.90
15143;DHT22;7672;50.834;6.286;2023-02-16T07:57:43;10.60;99.90
15143;DHT22;7672;50.834;6.286;2023-02-16T08:00:10;10.70;99.90
15143;DHT22;7672;50.834;6.286;2023-02-16T08:02:37;10.70;99.90
15143;DHT22;7672;50.834;6.286;2023-02-16T08:05:06;10.80;99.90
15143;DHT22;7672;50.834;6.286;2023-02-16T08:07:33;10.80;99.90
15143;DHT22;7672;50.834;6.286;2023-02-16T08:09:59;11.10;99.90
15143;DHT22;7672;50.834;6.286;2023-02-16T08:12:26;11.00;99.90
15143;DHT22;7672;50.834;6.286;2023-02-16T08:14:53;11.10;99.90
15143;DHT22;7672;50.834;6.286;2023-02-16T08:17:20;11.20;99.90
15143;DHT22;7672;50.834;6.286;2023-02-16T08:19:46;11.30;99.90
15143;DHT22;7672;50.834;6.286;2023-02-16T08:22:13;11.40;99.90
15143;DHT22;7672;50.834;6.286;2023-02-16T08:24:40;11.50;99.90
15143;DHT22;7672;50.834;6.286;2023-02-16T08:27:07;11.60;99.90
15143;DHT22;7672;50.834;6.286;2023-02-16T08:29:34;11.70;99.90
15143;DHT22;7672;50.834;6.286;2023-02-16T08:32:01;11.70;99.90
15143;DHT22;7672;50.834;6.286;2023-02-16T08:34:33;11.80;99.90
15143;DHT22;7672;50.834;6.286;2023-02-16T08:37:00;11.90;99.90
15143;DHT22;7672;50.834;6.286;2023-02-16T08:39:29;12.00;99.90
15143;DHT22;7672;50.834;6.286;2023-02-16T08:42:01;12.10;99.90
15143;DHT22;7672;50.834;6.286;2023-02-16T08:44:27;12.20;99.90
15143;DHT22;7672;50.834;6.286;2023-02-16T08:46:57;12.30;99.90
15143;DHT22;7672;50.834;6.286;2023-02-16T08:49:26;12.50;99.90
15143;DHT22;7672;50.834;6.286;2023-02-16T08:51:56;12.60;99.90
15143;DHT22;7672;50.834;6.286;2023-02-16T08:54:26;12.80;99.90
15143;DHT22;7672;50.834;6.286;2023-02-16T08:56:56;12.90;99.90
15143;DHT22;7672;50.834;6.286;2023-02-16T08:59:25;13.10;99.90
15143;DHT22;7672;50.834;6.286;2023-02-16T09:01:57;13.30;99.90
15143;DHT22;7672;50.834;6.286;2023-02-16T09:04:26;13.60;99.90
15143;DHT22;7672;50.834;6.286;2023-02-16T09:06:55;14.00;99.90
15143;DHT22;7672;50.834;6.286;2023-02-16T09:09:24;14.40;99.90
15143;DHT22;7672;50.834;6.286;2023-02-16T09:11:52;14.70;99.90
15143;DHT22;7672;50.834;6.286;2023-02-16T09:14:19;15.00;99.90
15143;DHT22;7672;50.834;6.286;2023-02-16T09:16:49;15.30;99.90
15143;DHT22;7672;50.834;6.286;2023-02-16T09:19:18;15.50;99.90
15143;DHT22;7672;50.834;6.286;2023-02-16T09:21:47;15.60;99.90
15143;DHT22;7672;50.834;6.286;2023-02-16T09:24:16;15.70;99.90
15143;DHT22;7672;50.834;6.286;2023-02-16T09:26:43;16.00;99.90
15143;DHT22;7672;50.834;6.286;2023-02-16T09:29:11;15.70;99.90
15143;DHT22;7672;50.834;6.286;2023-02-16T09:31:40;15.70;99.90
15143;DHT22;7672;50.834;6.286;2023-02-16T09:34:16;15.70;99.90
15143;DHT22;7672;50.834;6.286;2023-02-16T09:36:45;15.60;99.90
15143;DHT22;7672;50.834;6.286;2023-02-16T09:39:13;15.60;99.90
15143;DHT22;7672;50.834;6.286;2023-02-16T09:44:30;15.50;99.90
15143;DHT22;7672;50.834;6.286;2023-02-16T09:47:25;15.40;99.90
15143;DHT22;7672;50.834;6.286;2023-02-16T09:50:03;15.40;99.90
15143;DHT22;7672;50.834;6.286;2023-02-16T09:52:42;15.30;99.90
15143;DHT22;7672;50.834;6.286;2023-02-16T09:55:17;15.20;99.90
15143;DHT22;7672;50.834;6.286;2023-02-16T09:58:05;15.10;99.90
15143;DHT22;7672;50.834;6.286;2023-02-16T10:00:55;15.00;99.90
15143;DHT22;7672;50.834;6.286;2023-02-16T10:06:51;14.90;99.90
15143;DHT22;7672;50.834;6.286;2023-02-16T10:09:25;14.90;99.90
15143;DHT22;7672;50.834;6.286;2023-02-16T10:12:07;14.80;99.90
15143;DHT22;7672;50.834;6.286;2023-02-16T10:14:50;14.80;99.90
15143;DHT22;7672;50.834;6.286;2023-02-16T10:17:44;14.80;99.90
15143;DHT22;7672;50.834;6.286;2023-02-16T10:20:37;14.80;99.90
15143;DHT22;7672;50.834;6.286;2023-02-16T10:26:39;14.80;99.90
15143;DHT22;7672;50.834;6.286;2023-02-16T10:29:15;14.80;99.90
15143;DHT22;7672;50.834;6.286;2023-02-16T10:34:50;14.90;99.90
15143;DHT22;7672;50.834;6.286;2023-02-16T10:37:39;15.00;99.90
15143;DHT22;7672;50.834;6.286;2023-02-16T10:43:11;15.10;99.90
15143;DHT22;7672;50.834;6.286;2023-02-16T10:46:09;15.10;99.90
15143;DHT22;7672;50.834;6.286;2023-02-16T10:48:39;15.20;99.90
15143;DHT22;7672;50.834;6.286;2023-02-16T10:51:15;15.10;99.90
15143;DHT22;7672;50.834;6.286;2023-02-16T10:53:51;15.00;99.90
15143;DHT22;7672;50.834;6.286;2023-02-16T10:59:11;14.90;99.90
15143;DHT22;7672;50.834;6.286;2023-02-16T11:01:50;14.90;99.90
15143;DHT22;7672;50.834;6.286;2023-02-16T11:04:39;14.80;99.90
15143;DHT22;7672;50.834;6.286;2023-02-16T11:07:14;14.80;99.90
15143;DHT22;7672;50.834;6.286;2023-02-16T11:09:46;14.80;99.90
15143;DHT22;7672;50.834;6.286;2023-02-16T11:28:42;14.90;99.90
15143;DHT22;7672;50.834;6.286;2023-02-16T11:31:18;14.90;99.90
15143;DHT22;7672;50.834;6.286;2023-02-16T11:36:37;15.00;99.90
15143;DHT22;7672;50.834;6.286;2023-02-16T11:41:44;15.00;99.90
15143;DHT22;7672;50.834;6.286;2023-02-16T11:44:53;15.20;99.90
15143;DHT22;7672;50.834;6.286;2023-02-16T11:47:26;15.00;99.90
15143;DHT22;7672;50.834;6.286;2023-02-16T11:52:53;15.00;99.90
15143;DHT22;7672;50.834;6.286;2023-02-16T11:55:44;15.10;99.90
15143;DHT22;7672;50.834;6.286;2023-02-16T12:01:24;14.90;99.90
15143;DHT22;7672;50.834;6.286;2023-02-16T12:07:32;15.00;99.90
15143;DHT22;7672;50.834;6.286;2023-02-16T12:22:39;14.80;99.90
15143;DHT22;7672;50.834;6.286;2023-02-16T12:25:38;14.90;99.90
15143;DHT22;7672;50.834;6.286;2023-02-16T12:31:11;15.10;99.90
15143;DHT22;7672;50.834;6.286;2023-02-16T12:38:17;15.20;99.90
15143;DHT22;7672;50.834;6.286;2023-02-16T12:47:42;15.60;99.90
15143;DHT22;7672;50.834;6.286;2023-02-16T12:50:51;15.40;99.90
15143;DHT22;7672;50.834;6.286;2023-02-16T12:56:03;16.10;99.90
15143;DHT22;7672;50.834;6.286;2023-02-16T12:58:50;16.20;99.90
15143;DHT22;7672;50.834;6.286;2023-02-16T13:01:32;16.50;99.90
15143;DHT22;7672;50.834;6.286;2023-02-16T13:04:18;16.50;99.90
15143;DHT22;7672;50.834;6.286;2023-02-16T13:07:01;16.60;99.90
15143;DHT22;7672;50.834;6.286;2023-02-16T13:09:48;16.60;99.90
15143;DHT22;7672;50.834;6.286;2023-02-16T13:12:31;17.30;99.90
15143;DHT22;7672;50.834;6.286;2023-02-16T13:17:36;17.20;99.90
15143;DHT22;7672;50.834;6.286;2023-02-16T13:20:18;17.30;99.90
15143;DHT22;7672;50.834;6.286;2023-02-16T13:23:18;17.40;99.90
15143;DHT22;7672;50.834;6.286;2023-02-16T13:29:25;17.60;99.90
15143;DHT22;7672;50.834;6.286;2023-02-16T13:32:57;17.70;99.90
15143;DHT22;7672;50.834;6.286;2023-02-16T13:35:40;17.70;99.90
15143;DHT22;7672;50.834;6.286;2023-02-16T13:38:53;17.80;99.90
15143;DHT22;7672;50.834;6.286;2023-02-16T13:44:52;17.90;99.90
15143;DHT22;7672;50.834;6.286;2023-02-16T13:47:30;17.90;99.90
15143;DHT22;7672;50.834;6.286;2023-02-16T13:50:06;17.80;99.90
15143;DHT22;7672;50.834;6.286;2023-02-16T13:52:51;17.80;99.90
15143;DHT22;7672;50.834;6.286;2023-02-16T13:55:30;18.10;99.90
15143;DHT22;7672;50.834;6.286;2023-02-16T13:58:27;17.80;99.90
15143;DHT22;7672;50.834;6.286;2023-02-16T14:00:56;17.80;99.90
15143;DHT22;7672;50.834;6.286;2023-02-16T14:05:54;18.10;99.90
15143;DHT22;7672;50.834;6.286;2023-02-16T14:22:51;17.60;99.90
15143;DHT22;7672;50.834;6.286;2023-02-16T14:36:04;17.10;99.90
15143;DHT22;7672;50.834;6.286;2023-02-16T14:38:44;17.10;99.90
15143;DHT22;7672;50.834;6.286;2023-02-16T14:41:25;16.90;99.90
15143;DHT22;7672;50.834;6.286;2023-02-16T14:58:39;16.50;99.90
15143;DHT22;7672;50.834;6.286;2023-02-16T15:01:19;16.50;99.90
15143;DHT22;7672;50.834;6.286;2023-02-16T15:03:52;16.40;99.90
15143;DHT22;7672;50.834;6.286;2023-02-16T15:06:30;16.40;99.90
15143;DHT22;7672;50.834;6.286;2023-02-16T15:09:03;16.40;99.90
15143;DHT22;7672;50.834;6.286;2023-02-16T15:11:57;16.30;99.90
15143;DHT22;7672;50.834;6.286;2023-02-16T15:17:35;16.30;99.90
15143;DHT22;7672;50.834;6.286;2023-02-16T15:22:53;16.20;99.90
15143;DHT22;7672;50.834;6.286;2023-02-16T15:25:27;16.00;99.90
15143;DHT22;7672;50.834;6.286;2023-02-16T15:28:02;16.10;99.90
15143;DHT22;7672;50.834;6.286;2023-02-16T15:30:58;16.20;99.90
15143;DHT22;7672;50.834;6.286;2023-02-16T15:33:37;16.20;99.90
15143;DHT22;7672;50.834;6.286;2023-02-16T15:36:13;15.90;99.90
15143;DHT22;7672;50.834;6.286;2023-02-16T15:38:54;15.90;99.90
15143;DHT22;7672;50.834;6.286;2023-02-16T15:41:31;15.90;99.90
15143;DHT22;7672;50.834;6.286;2023-02-16T15:44:02;15.80;99.90
15143;DHT22;7672;50.834;6.286;2023-02-16T15:46:39;15.70;99.90
15143;DHT22;7672;50.834;6.286;2023-02-16T15:49:13;15.70;99.90
15143;DHT22;7672;50.834;6.286;2023-02-16T15:51:47;15.90;99.90
15143;DHT22;7672;50.834;6.286;2023-02-16T15:54:27;15.80;99.90
15143;DHT22;7672;50.834;6.286;2023-02-16T15:57:04;16.00;99.90
15143;DHT22;7672;50.834;6.286;2023-02-16T15:59:48;15.60;99.90
15143;DHT22;7672;50.834;6.286;2023-02-16T16:02:33;15.70;99.90
15143;DHT22;7672;50.834;6.286;2023-02-16T16:05:07;15.50;99.90
15143;DHT22;7672;50.834;6.286;2023-02-16T16:07:46;15.50;99.90
15143;DHT22;7672;50.834;6.286;2023-02-16T16:10:19;15.80;99.90
15143;DHT22;7672;50.834;6.286;2023-02-16T16:12:53;15.80;99.90
15143;DHT22;7672;50.834;6.286;2023-02-16T16:15:28;15.60;99.90
15143;DHT22;7672;50.834;6.286;2023-02-16T16:17:56;15.10;99.90
15143;DHT22;7672;50.834;6.286;2023-02-16T16:20:35;15.20;99.90
15143;DHT22;7672;50.834;6.286;2023-02-16T16:25:43;15.30;99.90
15143;DHT22;7672;50.834;6.286;2023-02-16T16:34:02;15.20;99.90
15143;DHT22;7672;50.834;6.286;2023-02-16T16:36:52;15.10;99.90
15143;DHT22;7672;50.834;6.286;2023-02-16T16:39:26;15.10;99.90
15143;DHT22;7672;50.834;6.286;2023-02-16T16:44:48;15.00;99.90
15143;DHT22;7672;50.834;6.286;2023-02-16T16:50:02;15.00;99.90
15143;DHT22;7672;50.834;6.286;2023-02-16T16:52:52;14.90;99.90
15143;DHT22;7672;50.834;6.286;2023-02-16T16:55:21;14.90;99.90
15143;DHT22;7672;50.834;6.286;2023-02-16T16:57:57;15.50;99.90
15143;DHT22;7672;50.834;6.286;2023-02-16T17:00:29;15.20;99.90
15143;DHT22;7672;50.834;6.286;2023-02-16T17:03:01;14.70;99.90
15143;DHT22;7672;50.834;6.286;2023-02-16T17:05:30;14.80;99.90
15143;DHT22;7672;50.834;6.286;2023-02-16T17:07:57;14.80;99.90
15143;DHT22;7672;50.834;6.286;2023-02-16T17:10:24;14.70;99.90
15143;DHT22;7672;50.834;6.286;2023-02-16T17:12:55;14.50;99.90
15143;DHT22;7672;50.834;6.286;2023-02-16T17:15:28;14.80;99.90
15143;DHT22;7672;50.834;6.286;2023-02-16T17:17:59;14.70;99.90
15143;DHT22;7672;50.834;6.286;2023-02-16T17:20:27;14.90;99.90
15143;DHT22;7672;50.834;6.286;2023-02-16T17:22:54;14.40;99.90
15143;DHT22;7672;50.834;6.286;2023-02-16T17:25:21;15.20;99.90
15143;DHT22;7672;50.834;6.286;2023-02-16T17:27:48;14.60;99.90
15143;DHT22;7672;50.834;6.286;2023-02-16T17:30:15;14.90;99.90
15143;DHT22;7672;50.834;6.286;2023-02-16T17:32:42;14.80;99.90
15143;DHT22;7672;50.834;6.286;2023-02-16T17:35:09;14.60;99.90
15143;DHT22;7672;50.834;6.286;2023-02-16T17:37:36;14.50;99.90
15143;DHT22;7672;50.834;6.286;2023-02-16T17:40:07;14.50;99.90
15143;DHT22;7672;50.834;6.286;2023-02-16T17:42:36;14.50;99.90
15143;DHT22;7672;50.834;6.286;2023-02-16T17:45:04;14.40;99.90
15143;DHT22;7672;50.834;6.286;2023-02-16T17:47:31;14.40;99.90
15143;DHT22;7672;50.834;6.286;2023-02-16T17:49:57;14.40;99.90
15143;DHT22;7672;50.834;6.286;2023-02-16T17:52:24;14.40;99.90
15143;DHT22;7672;50.834;6.286;2023-02-16T17:54:51;14.40;99.90
15143;DHT22;7672;50.834;6.286;2023-02-16T17:57:18;14.20;99.90
15143;DHT22;7672;50.834;6.286;2023-02-16T17:59:45;14.30;99.90
15143;DHT22;7672;50.834;6.286;2023-02-16T18:02:12;14.40;99.90
15143;DHT22;7672;50.834;6.286;2023-02-16T18:04:38;14.30;99.90
15143;DHT22;7672;50.834;6.286;2023-02-16T18:07:12;14.30;99.90
15143;DHT22;7672;50.834;6.286;2023-02-16T18:09:41;14.20;99.90
15143;DHT22;7672;50.834;6.286;2023-02-16T18:12:08;14.10;99.90
15143;DHT22;7672;50.834;6.286;2023-02-16T18:14:34;14.10;99.90
15143;DHT22;7672;50.834;6.286;2023-02-16T18:17:02;14.00;99.90
15143;DHT22;7672;50.834;6.286;2023-02-16T18:19:30;14.00;99.90
15143;DHT22;7672;50.834;6.286;2023-02-16T18:21:57;13.90;99.90
15143;DHT22;7672;50.834;6.286;2023-02-16T18:24:25;13.80;99.90
15143;DHT22;7672;50.834;6.286;2023-02-16T18:26:52;13.80;99.90
15143;DHT22;7672;50.834;6.286;2023-02-16T18:29:20;13.80;99.90
15143;DHT22;7672;50.834;6.286;2023-02-16T18:31:47;13.70;99.90
15143;DHT22;7672;50.834;6.286;2023-02-16T18:34:14;13.70;99.90
15143;DHT22;7672;50.834;6.286;2023-02-16T18:36:41;13.60;99.90
15143;DHT22;7672;50.834;6.286;2023-02-16T18:39:08;13.60;99.90
15143;DHT22;7672;50.834;6.286;2023-02-16T18:41:35;13.40;99.90
15143;DHT22;7672;50.834;6.286;2023-02-16T18:44:03;13.40;99.90
15143;DHT22;7672;50.834;6.286;2023-02-16T18:46:30;13.40;99.90
15143;DHT22;7672;50.834;6.286;2023-02-16T18:48:57;13.40;99.90
15143;DHT22;7672;50.834;6.286;2023-02-16T18:51:23;13.40;99.90
15143;DHT22;7672;50.834;6.286;2023-02-16T18:53:55;13.40;99.90
15143;DHT22;7672;50.834;6.286;2023-02-16T18:56:22;13.30;99.90
15143;DHT22;7672;50.834;6.286;2023-02-16T18:58:49;13.30;99.90
15143;DHT22;7672;50.834;6.286;2023-02-16T19:01:28;13.30;99.90
15143;DHT22;7672;50.834;6.286;2023-02-16T19:03:57;13.30;99.90
15143;DHT22;7672;50.834;6.286;2023-02-16T19:06:26;13.20;99.90
15143;DHT22;7672;50.834;6.286;2023-02-16T19:08:54;13.20;99.90
15143;DHT22;7672;50.834;6.286;2023-02-16T19:11:21;13.10;99.90
15143;DHT22;7672;50.834;6.286;2023-02-16T19:13:49;13.10;99.90
15143;DHT22;7672;50.834;6.286;2023-02-16T19:16:16;13.00;99.90
15143;DHT22;7672;50.834;6.286;2023-02-16T19:18:43;12.90;99.90
15143;DHT22;7672;50.834;6.286;2023-02-16T19:21:12;12.90;99.90
15143;DHT22;7672;50.834;6.286;2023-02-16T19:23:39;12.80;99.90
15143;DHT22;7672;50.834;6.286;2023-02-16T19:26:10;12.70;99.90
15143;DHT22;7672;50.834;6.286;2023-02-16T19:28:39;12.60;99.90
15143;DHT22;7672;50.834;6.286;2023-02-16T19:31:08;12.60;99.90
15143;DHT22;7672;50.834;6.286;2023-02-16T19:33:45;12.50;99.90